Time;durP1;ratioP1;P1;durP2;ratioP2;P2;SDS_P1;SDS_P2;PMS_P1;PMS_P2;Temp;Humidity;BMP_temperature;BMP_pressure;BME280_temperature;BME280_humidity;BME280_pressure;Samples;Min_cycle;Max_cycle;Signal;HPM_P1;HPM_P2
2021/12/31 07:43:50;;;;;;;7.43;5.00;;;;;;;4.76;100.00;99702.28;5108634;27;20384;-79
2021/12/31 07:46:17;;;;;;;6.47;4.05;;;;;;;4.70;100.00;99697.44;5105055;28;20043;-80
2021/12/31 07:48:43;;;;;;;4.95;3.47;;;;;;;4.77;100.00;99695.91;5106752;28;20056;-79
2021/12/31 07:51:11;;;;;;;3.92;2.80;;;;;;;4.91;100.00;99715.41;5109988;28;20044;-79
2021/12/31 07:53:37;;;;;;;7.53;2.17;;;;;;;4.97;100.00;99704.09;5101286;28;20040;-79
2021/12/31 07:56:05;;;;;;;2.92;2.20;;;;;;;4.95;100.00;99704.22;5107064;28;20047;-79
2021/12/31 07:58:32;;;;;;;7.65;2.67;;;;;;;5.04;100.00;99691.75;5109847;28;20052;-79
2021/12/31 08:01:00;;;;;;;3.25;2.20;;;;;;;5.07;100.00;99693.34;5110070;28;20046;-79
2021/12/31 08:03:27;;;;;;;4.70;2.38;;;;;;;5.13;100.00;99722.44;5103514;28;20040;-79
2021/12/31 08:05:54;;;;;;;6.60;2.92;;;;;;;5.11;100.00;99709.09;5108026;28;20043;-79
2021/12/31 08:08:21;;;;;;;3.97;2.50;;;;;;;5.25;100.00;99715.94;5110274;28;20047;-79
2021/12/31 08:10:48;;;;;;;5.10;2.10;;;;;;;5.40;100.00;99716.41;5106907;28;20052;-79
2021/12/31 08:13:15;;;;;;;3.50;2.10;;;;;;;5.40;100.00;99708.31;5105547;28;20044;-79
2021/12/31 08:15:42;;;;;;;5.47;2.20;;;;;;;5.50;100.00;99719.97;5100342;28;20044;-79
2021/12/31 08:18:10;;;;;;;4.78;2.83;;;;;;;5.47;100.00;99705.94;5108721;28;20048;-79
2021/12/31 08:20:37;;;;;;;4.68;2.67;;;;;;;5.52;100.00;99703.66;5105461;28;20044;-79
2021/12/31 08:23:09;;;;;;;4.20;2.90;;;;;;;5.54;100.00;99696.31;5109775;28;20042;-79
2021/12/31 08:25:36;;;;;;;4.60;2.90;;;;;;;5.64;100.00;99712.50;5104416;28;20040;-79
2021/12/31 08:28:03;;;;;;;14.95;5.07;;;;;;;5.65;100.00;99708.81;5107284;28;20044;-79
2021/12/31 08:30:30;;;;;;;15.07;6.93;;;;;;;5.72;100.00;99709.09;5108179;28;20047;-79
2021/12/31 08:32:57;;;;;;;12.48;4.90;;;;;;;5.87;100.00;99706.81;5100665;28;20637;-79
2021/12/31 08:35:25;;;;;;;7.88;3.22;;;;;;;6.10;100.00;99718.25;5095644;28;20127;-79
2021/12/31 08:37:52;;;;;;;7.55;3.50;;;;;;;6.09;100.00;99703.88;5102825;28;20044;-79
2021/12/31 08:40:20;;;;;;;5.20;3.10;;;;;;;6.18;100.00;99710.28;5105351;28;20047;-79
2021/12/31 08:42:47;;;;;;;5.35;2.83;;;;;;;6.23;100.00;99701.75;5108675;28;20043;-80
2021/12/31 08:45:14;;;;;;;9.75;3.53;;;;;;;6.32;100.00;99707.16;5104091;28;20047;-79
2021/12/31 08:47:41;;;;;;;5.38;3.42;;;;;;;6.33;100.00;99691.78;5108729;28;20051;-80
2021/12/31 08:50:09;;;;;;;6.05;3.15;;;;;;;6.44;100.00;99698.88;5103133;28;20054;-79
2021/12/31 08:52:38;;;;;;;5.63;3.50;;;;;;;6.51;100.00;99690.03;5105763;28;20132;-79
2021/12/31 08:55:06;;;;;;;6.95;3.45;;;;;;;6.61;100.00;99694.53;5095714;28;20048;-79
2021/12/31 08:57:33;;;;;;;10.18;3.67;;;;;;;6.78;100.00;99693.78;5092662;28;20052;-79
2021/12/31 09:00:00;;;;;;;10.00;3.80;;;;;;;6.82;100.00;99678.13;5093602;28;20044;-79
2021/12/31 09:02:27;;;;;;;7.88;3.92;;;;;;;6.99;100.00;99688.16;5091270;28;20045;-79
2021/12/31 09:04:53;;;;;;;7.57;4.07;;;;;;;7.08;100.00;99672.91;5093599;28;20048;-79
2021/12/31 09:07:20;;;;;;;6.90;3.90;;;;;;;7.13;100.00;99669.75;5094229;28;20048;-79
2021/12/31 09:09:48;;;;;;;6.70;4.18;;;;;;;7.22;100.00;99674.25;5089566;28;20052;-79
2021/12/31 09:12:15;;;;;;;7.97;4.07;;;;;;;7.22;100.00;99685.06;5093089;28;20046;-79
2021/12/31 09:14:42;;;;;;;8.05;3.85;;;;;;;7.42;100.00;99683.97;5092561;28;20052;-80
2021/12/31 09:17:09;;;;;;;10.60;3.85;;;;;;;7.65;100.00;99682.66;5094930;28;20048;-79
2021/12/31 09:19:36;;;;;;;9.02;4.50;;;;;;;7.78;100.00;99686.72;5091493;28;20107;-79
2021/12/31 09:22:04;;;;;;;14.73;5.78;;;;;;;7.83;100.00;99686.25;5094553;28;20044;-79
2021/12/31 09:24:32;;;;;;;39.10;18.77;;;;;;;7.83;100.00;99677.25;5094926;28;20059;-79
2021/12/31 09:27:00;;;;;;;32.50;14.82;;;;;;;7.79;100.00;99671.31;5095601;28;20047;-79
2021/12/31 09:29:27;;;;;;;19.70;8.23;;;;;;;7.94;100.00;99683.28;5092588;28;20052;-79
2021/12/31 09:31:54;;;;;;;27.80;12.02;;;;;;;8.07;100.00;99692.88;5095181;28;20044;-79
2021/12/31 09:34:21;;;;;;;20.15;10.02;;;;;;;8.10;100.00;99682.59;5088508;28;20048;-79
2021/12/31 09:36:48;;;;;;;16.73;8.23;;;;;;;8.11;100.00;99675.31;5093206;28;20048;-79
2021/12/31 09:39:15;;;;;;;11.15;6.47;;;;;;;8.11;100.00;99673.47;5093270;28;20059;-79
2021/12/31 09:41:42;;;;;;;9.18;4.80;;;;;;;8.12;100.00;99668.91;5093340;28;20044;-79
2021/12/31 09:44:14;;;;;;;4.60;3.38;;;;;;;8.22;100.00;99676.91;5087678;28;20054;-80
2021/12/31 09:46:41;;;;;;;5.97;3.63;;;;;;;8.25;100.00;99672.06;5085524;28;20115;-79
2021/12/31 09:49:08;;;;;;;10.20;3.78;;;;;;;8.33;100.00;99682.94;5083905;28;20048;-79
2021/12/31 09:51:35;;;;;;;8.57;4.07;;;;;;;8.36;100.00;99691.78;5078429;28;20052;-79
2021/12/31 09:54:02;;;;;;;7.53;3.80;;;;;;;8.37;100.00;99690.75;5088224;28;20476;-83
2021/12/31 09:56:29;;;;;;;5.32;3.40;;;;;;;8.41;100.00;99690.28;5083473;28;20526;-79
2021/12/31 09:58:56;;;;;;;8.02;4.40;;;;;;;8.47;100.00;99689.66;5092633;28;20093;-79
2021/12/31 10:01:24;;;;;;;5.80;3.95;;;;;;;8.61;100.00;99706.34;5094202;28;20054;-79
2021/12/31 10:03:56;;;;;;;4.75;3.35;;;;;;;8.63;100.00;99715.19;5083542;28;20037;-79
2021/12/31 10:06:24;;;;;;;7.10;3.47;;;;;;;8.68;100.00;99708.28;5090713;28;20110;-79
2021/12/31 10:08:51;;;;;;;4.68;3.03;;;;;;;8.75;100.00;99700.38;5076586;28;20115;-79
2021/12/31 10:11:20;;;;;;;6.28;3.75;;;;;;;8.86;100.00;99701.94;5089880;28;20431;-80
2021/12/31 10:13:53;;;;;;;5.85;3.50;;;;;;;8.92;100.00;99693.16;5091321;28;20128;-79
2021/12/31 10:16:22;;;;;;;5.05;3.30;;;;;;;9.06;100.00;99696.28;5093978;28;20040;-79
2021/12/31 10:19:04;;;;;;;7.32;3.20;;;;;;;8.97;100.00;99676.41;5095631;28;20040;-79
2021/12/31 10:21:35;;;;;;;7.35;3.67;;;;;;;9.04;100.00;99683.72;5094184;28;20040;-79
2021/12/31 10:24:20;;;;;;;6.55;3.30;;;;;;;9.12;100.00;99671.22;5094714;28;20059;-79
2021/12/31 10:26:47;;;;;;;7.55;3.63;;;;;;;9.16;100.00;99668.03;5094879;28;20131;-79
2021/12/31 10:29:14;;;;;;;5.22;3.38;;;;;;;9.16;100.00;99659.03;5094279;28;20066;-79
2021/12/31 10:31:44;;;;;;;6.28;3.65;;;;;;;9.19;100.00;99662.28;5093915;28;20726;-79
2021/12/31 10:34:28;;;;;;;9.68;3.42;;;;;;;9.39;100.00;99672.84;5092038;28;20093;-79
2021/12/31 10:36:56;;;;;;;7.75;3.75;;;;;;;9.36;100.00;99659.63;5097383;28;20048;-79
2021/12/31 10:39:25;;;;;;;6.07;3.80;;;;;;;9.53;100.00;99666.78;5073376;28;20411;-79
2021/12/31 10:42:01;;;;;;;4.75;3.10;;;;;;;9.49;100.00;99645.59;5078788;28;20052;-80
2021/12/31 10:44:45;;;;;;;4.93;3.17;;;;;;;9.62;100.00;99645.09;5094060;28;20051;-79
2021/12/31 10:47:13;;;;;;;6.18;3.10;;;;;;;9.66;100.00;99631.00;5092806;28;20117;-79
2021/12/31 10:50:14;;;;;;;7.93;3.78;;;;;;;9.76;100.00;99633.56;5076486;28;21521;-79
2021/12/31 10:52:46;;;;;;;4.88;2.75;;;;;;;9.73;100.00;99633.91;5082837;28;20094;-79
2021/12/31 10:55:18;;;;;;;6.70;2.90;;;;;;;9.70;100.00;99624.22;5084683;28;20143;-79
2021/12/31 10:57:49;;;;;;;5.95;3.00;;;;;;;9.96;100.00;99630.53;5089889;28;20044;-83
2021/12/31 11:00:19;;;;;;;6.15;2.92;;;;;;;9.93;100.00;99620.84;5083591;28;20048;-79
2021/12/31 11:02:47;;;;;;;;;;;;;;;9.95;100.00;99632.41;5093354;28;20126;-79
2021/12/31 11:05:19;;;;;;;4.30;2.83;;;;;;;9.99;100.00;99622.03;5093565;28;19920;-79
2021/12/31 11:07:47;;;;;;;4.30;2.72;;;;;;;9.91;100.00;99612.88;5080838;28;20466;-80
2021/12/31 11:10:15;;;;;;;5.07;2.70;;;;;;;9.93;100.00;99604.56;5087403;28;20076;-79
2021/12/31 11:12:46;;;;;;;5.60;3.03;;;;;;;10.08;100.00;99618.31;5093512;28;20484;-79
2021/12/31 11:15:15;;;;;;;6.38;3.10;;;;;;;10.06;100.00;99606.78;5073372;28;20127;-79
2021/12/31 11:17:42;;;;;;;5.50;2.90;;;;;;;10.18;100.00;99610.81;5089893;28;20059;-79
2021/12/31 11:20:11;;;;;;;6.68;3.15;;;;;;;10.22;100.00;99614.03;5089699;28;20054;-79
2021/12/31 11:22:40;;;;;;;3.85;2.60;;;;;;;10.14;100.00;99600.47;5085861;28;20047;-79
2021/12/31 11:25:27;;;;;;;3.90;2.72;;;;;;;10.10;100.00;99584.53;5077672;28;20040;-79
2021/12/31 11:27:56;;;;;;;5.40;2.63;;;;;;;10.27;100.00;99600.81;5085643;28;20056;-79
2021/12/31 11:30:29;;;;;;;3.37;2.30;;;;;;;10.44;100.00;99604.38;5075726;28;20052;-79
2021/12/31 11:33:05;;;;;;;5.10;2.88;;;;;;;10.35;100.00;99600.81;5078057;28;20306;-79
2021/12/31 11:35:35;;;;;;;3.67;2.58;;;;;;;10.29;100.00;99593.31;5080236;28;20057;-79
2021/12/31 11:38:05;;;;;;;3.38;2.22;;;;;;;10.44;100.00;99591.59;5078710;28;20407;-79
2021/12/31 11:40:34;;;;;;;2.47;2.28;;;;;;;10.47;100.00;99574.13;5081444;28;20060;-79
2021/12/31 11:43:23;;;;;;;3.58;2.80;;;;;;;10.68;100.00;99580.84;5081265;28;20044;-79
2021/12/31 11:46:32;;;;;;;4.75;2.85;;;;;;;10.71;100.00;99585.94;5090995;28;20407;-79
2021/12/31 11:49:01;;;;;;;3.65;2.50;;;;;;;10.68;100.00;99575.41;5077518;28;20074;-79
2021/12/31 11:51:33;;;;;;;4.57;3.10;;;;;;;10.74;100.00;99591.88;5091101;28;20070;-79
2021/12/31 11:54:21;;;;;;;2.78;2.42;;;;;;;10.78;100.00;99590.50;5079347;28;20044;-79
2021/12/31 11:57:19;;;;;;;3.10;2.20;;;;;;;11.02;100.00;99612.31;5089637;28;20389;-79
2021/12/31 11:59:54;;;;;;;4.43;2.58;;;;;;;11.03;100.00;99614.88;5085481;28;20064;-79
2021/12/31 12:02:36;;;;;;;3.80;2.53;;;;;;;11.03;100.00;99614.03;5073167;28;20048;-79
2021/12/31 12:05:08;;;;;;;3.67;2.50;;;;;;;11.08;100.00;99626.09;5082880;28;20113;-79
2021/12/31 12:07:37;;;;;;;4.55;2.53;;;;;;;11.06;100.00;99605.50;5084976;28;20114;-79
2021/12/31 12:10:26;;;;;;;3.33;2.47;;;;;;;11.06;100.00;99608.22;5076828;28;20506;-79
2021/12/31 12:13:10;;;;;;;4.18;2.50;;;;;;;11.05;100.00;99606.53;5084624;28;20050;-79
2021/12/31 12:15:41;;;;;;;5.30;2.80;;;;;;;11.23;100.00;99623.47;5091366;28;20058;-79
2021/12/31 12:18:09;;;;;;;4.32;2.63;;;;;;;11.25;100.00;99628.72;5091956;28;20064;-79
2021/12/31 12:20:41;;;;;;;5.45;3.05;;;;;;;11.33;100.00;99636.84;5082077;28;20076;-79
2021/12/31 12:23:23;;;;;;;4.05;3.17;;;;;;;11.36;100.00;99628.31;5071711;28;20056;-79
2021/12/31 12:25:52;;;;;;;5.60;2.88;;;;;;;11.55;100.00;99637.03;5088298;28;20051;-79
2021/12/31 12:28:21;;;;;;;3.92;2.63;;;;;;;11.57;100.00;99624.94;5078826;28;20036;-79
2021/12/31 12:30:59;;;;;;;6.43;3.30;;;;;;;11.57;100.00;99608.63;5088503;28;20052;-79
2021/12/31 12:33:27;;;;;;;4.15;3.13;;;;;;;11.63;100.00;99604.34;5089484;28;20048;-79
2021/12/31 12:35:55;;;;;;;5.88;2.95;;;;;;;11.52;100.00;99606.44;5085886;28;20058;-79
2021/12/31 12:38:23;;;;;;;8.05;4.38;;;;;;;11.50;100.00;99589.44;5091872;28;20476;-79
2021/12/31 12:40:55;;;;;;;6.25;3.55;;;;;;;11.59;100.00;99598.41;5080974;28;20123;-79
2021/12/31 12:43:23;;;;;;;7.82;3.60;;;;;;;11.66;100.00;99593.06;5080161;28;20140;-79
2021/12/31 12:45:54;;;;;;;7.28;4.50;;;;;;;11.72;100.00;99588.78;5095722;28;20058;-79
2021/12/31 12:48:34;;;;;;;5.90;2.70;;;;;;;11.87;100.00;99600.56;5088281;28;20076;-79
2021/12/31 12:51:02;;;;;;;4.97;3.00;;;;;;;11.85;100.00;99603.47;5080495;28;20123;-79
2021/12/31 12:53:30;;;;;;;5.45;3.30;;;;;;;11.83;100.00;99580.16;5076319;28;20049;-79
2021/12/31 12:56:07;;;;;;;5.70;3.40;;;;;;;11.84;100.00;99574.53;5096374;28;20147;-79
2021/12/31 12:58:37;;;;;;;6.35;3.05;;;;;;;11.68;100.00;99564.63;5077141;28;20110;-79
2021/12/31 13:01:06;;;;;;;4.95;2.72;;;;;;;11.61;100.00;99584.63;5080032;28;20051;-79
2021/12/31 13:03:43;;;;;;;4.60;3.05;;;;;;;11.71;100.00;99604.25;5084524;28;20055;-79
2021/12/31 13:06:10;;;;;;;5.15;3.63;;;;;;;11.57;100.00;99588.72;5084763;28;20126;-79
2021/12/31 13:08:37;;;;;;;6.40;3.72;;;;;;;11.62;100.00;99586.28;5095809;28;20048;-80
2021/12/31 13:11:06;;;;;;;6.00;3.40;;;;;;;11.72;100.00;99567.81;5095834;28;20415;-79
2021/12/31 13:13:33;;;;;;;5.75;3.33;;;;;;;11.75;100.00;99558.44;5096153;28;20052;-79
2021/12/31 13:16:01;;;;;;;5.50;3.72;;;;;;;11.50;100.00;99539.56;5094270;28;20048;-79
2021/12/31 13:18:33;;;;;;;7.75;3.35;;;;;;;11.57;100.00;99551.44;5096266;28;20414;-79
2021/12/31 13:21:02;;;;;;;6.50;3.65;;;;;;;11.54;100.00;99540.91;5092151;28;20040;-79
2021/12/31 13:23:29;;;;;;;7.43;3.57;;;;;;;11.55;100.00;99539.88;5095977;28;20048;-79
2021/12/31 13:25:56;;;;;;;5.55;3.85;;;;;;;11.50;100.00;99535.00;5081962;28;20045;-79
2021/12/31 13:28:27;;;;;;;5.60;3.28;;;;;;;11.49;100.00;99540.63;5075679;28;20048;-79
2021/12/31 13:31:02;;;;;;;5.32;3.58;;;;;;;11.57;100.00;99542.44;5084309;28;20066;-79
2021/12/31 13:33:30;;;;;;;7.10;3.67;;;;;;;11.73;100.00;99544.16;5089203;28;20399;-79
2021/12/31 13:36:21;;;;;;;10.48;4.50;;;;;;;11.63;100.00;99530.81;5090765;28;20040;-79
2021/12/31 13:38:59;;;;;;;9.75;4.00;;;;;;;11.61;100.00;99528.25;5094077;28;20055;-79
2021/12/31 13:41:26;;;;;;;6.68;4.30;;;;;;;11.72;100.00;99534.31;5090249;28;20044;-77
2021/12/31 13:43:55;;;;;;;4.70;3.70;;;;;;;11.54;100.00;99521.00;5077756;28;20044;-74
2021/12/31 13:46:29;;;;;;;8.98;3.90;;;;;;;11.62;100.00;99519.06;5090187;28;20499;-78
2021/12/31 13:49:03;;;;;;;5.45;3.03;;;;;;;11.44;100.00;99508.50;5095118;28;20490;-78
2021/12/31 13:51:31;;;;;;;10.20;3.78;;;;;;;11.43;100.00;99519.56;5082624;28;20516;-78
2021/12/31 13:53:58;;;;;;;4.68;3.47;;;;;;;11.49;100.00;99516.94;5090695;28;20929;-78
2021/12/31 13:56:36;;;;;;;6.00;3.47;;;;;;;11.53;100.00;99514.69;5092155;28;20052;-78
2021/12/31 13:59:38;;;;;;;5.72;3.42;;;;;;;11.52;100.00;99535.66;5092282;28;20051;-78
2021/12/31 14:02:07;;;;;;;6.47;3.63;;;;;;;11.45;100.00;99544.72;4992887;28;20050;-77
2021/12/31 14:04:36;;;;;;;5.93;3.92;;;;;;;11.46;100.00;99551.88;5067128;28;20044;-78
2021/12/31 14:07:16;;;;;;;5.27;3.47;;;;;;;11.56;100.00;99546.16;5074760;28;20070;-78
2021/12/31 14:09:44;;;;;;;5.78;3.85;;;;;;;11.55;100.00;99529.00;5079896;28;20306;-78
2021/12/31 14:12:11;;;;;;;5.93;3.67;;;;;;;11.61;100.00;99552.78;5094730;28;20055;-78
2021/12/31 14:14:41;;;;;;;6.30;3.83;;;;;;;11.46;100.00;99525.47;5086740;28;20404;-78
2021/12/31 14:17:09;;;;;;;5.72;3.38;;;;;;;11.57;100.00;99542.44;5091147;28;20477;-78
2021/12/31 14:19:36;;;;;;;5.40;4.20;;;;;;;11.51;100.00;99558.44;5074281;28;20048;-78
2021/12/31 14:22:03;;;;;;;8.00;4.05;;;;;;;11.58;100.00;99555.84;5073495;28;20052;-78
2021/12/31 14:24:31;;;;;;;9.90;3.75;;;;;;;11.55;100.00;99534.44;5074661;28;20127;-78
2021/12/31 14:26:58;;;;;;;6.80;4.15;;;;;;;11.50;100.00;99562.22;5089986;28;20048;-78
2021/12/31 14:29:26;;;;;;;7.25;4.40;;;;;;;11.44;100.00;99576.56;5094095;28;20055;-78
2021/12/31 14:31:55;;;;;;;6.18;4.18;;;;;;;11.44;100.00;99594.75;5083711;28;20132;-78
2021/12/31 14:34:24;;;;;;;7.13;4.13;;;;;;;11.35;100.00;99585.81;5074272;28;20381;-78
2021/12/31 14:36:59;;;;;;;7.23;3.90;;;;;;;11.33;100.00;99590.56;5080728;28;20491;-78
2021/12/31 14:39:26;;;;;;;5.72;3.65;;;;;;;11.32;100.00;99597.88;5090458;28;20044;-78
2021/12/31 14:41:54;;;;;;;5.32;3.30;;;;;;;11.14;100.00;99586.41;5077573;28;20054;-78
2021/12/31 14:44:21;;;;;;;4.55;3.50;;;;;;;11.11;100.00;99593.06;5093465;28;20048;-78
2021/12/31 14:46:51;;;;;;;4.82;2.70;;;;;;;11.10;100.00;99585.94;5094508;28;20044;-78
2021/12/31 14:49:22;;;;;;;6.20;2.42;;;;;;;11.03;100.00;99568.63;5077149;28;20053;-78
2021/12/31 14:51:50;;;;;;;7.75;2.63;;;;;;;11.02;100.00;99568.78;5073059;28;20059;-78
2021/12/31 14:54:17;;;;;;;5.47;3.58;;;;;;;10.86;100.00;99558.84;5079881;28;20051;-78
2021/12/31 14:56:46;;;;;;;5.22;3.58;;;;;;;10.88;100.00;99530.44;5073710;28;20445;-77
2021/12/31 14:59:14;;;;;;;4.97;2.70;;;;;;;10.93;100.00;99532.63;5087271;28;20060;-77
2021/12/31 15:01:42;;;;;;;3.33;2.72;;;;;;;10.72;100.00;99525.06;5091826;28;20048;-78
2021/12/31 15:04:09;;;;;;;4.75;3.15;;;;;;;10.57;100.00;99535.88;5079805;28;20072;-77
2021/12/31 15:06:38;;;;;;;6.60;3.00;;;;;;;10.51;100.00;99553.72;5073788;28;20438;-78
2021/12/31 15:09:07;;;;;;;6.18;2.63;;;;;;;10.35;100.00;99560.03;5076388;28;20051;-77
2021/12/31 15:11:34;;;;;;;5.43;3.10;;;;;;;10.23;100.00;99569.56;5089429;28;20394;-83
2021/12/31 15:14:01;;;;;;;3.80;2.85;;;;;;;10.18;100.00;99572.78;5081744;28;20127;-77
2021/12/31 15:16:28;;;;;;;4.20;2.67;;;;;;;10.14;100.00;99557.00;5087735;28;20074;-77
2021/12/31 15:18:55;;;;;;;7.85;3.40;;;;;;;10.19;100.00;99570.91;5091236;28;20056;-78
2021/12/31 15:21:23;;;;;;;12.13;4.10;;;;;;;9.95;100.00;99569.06;5073501;28;20127;-77
2021/12/31 15:23:52;;;;;;;10.05;7.45;;;;;;;9.88;100.00;99574.34;5074069;28;20056;-78
2021/12/31 15:26:20;;;;;;;8.57;4.60;;;;;;;9.80;100.00;99555.34;5081996;28;20054;-78
2021/12/31 15:28:48;;;;;;;6.00;3.92;;;;;;;9.70;100.00;99553.66;5073186;28;20503;-78
2021/12/31 15:31:16;;;;;;;5.68;3.28;;;;;;;9.51;100.00;99545.84;5071816;28;20044;-78
2021/12/31 15:33:43;;;;;;;11.50;2.90;;;;;;;9.38;100.00;99562.63;5074239;28;20048;-78
2021/12/31 15:36:12;;;;;;;5.28;3.20;;;;;;;9.26;100.00;99553.09;5078159;28;20399;-78
2021/12/31 15:38:39;;;;;;;8.70;3.35;;;;;;;9.24;100.00;99566.81;5073810;28;20109;-78
2021/12/31 15:41:09;;;;;;;5.68;2.58;;;;;;;9.20;100.00;99569.03;5076687;28;20048;-78
2021/12/31 15:43:37;;;;;;;3.63;3.00;;;;;;;9.10;100.00;99556.63;5080650;28;20047;-77
2021/12/31 15:46:04;;;;;;;7.72;3.42;;;;;;;8.95;100.00;99551.84;5092496;28;20523;-77
2021/12/31 15:48:31;;;;;;;5.53;3.83;;;;;;;9.03;100.00;99553.72;5088324;28;20492;-77
2021/12/31 15:50:58;;;;;;;8.05;4.53;;;;;;;8.89;100.00;99543.53;5091751;28;20059;-78
2021/12/31 15:53:25;;;;;;;4.85;3.55;;;;;;;8.80;100.00;99564.34;5087213;28;20093;-78
2021/12/31 15:55:52;;;;;;;5.45;3.58;;;;;;;8.78;100.00;99571.78;5074853;28;20044;-78
2021/12/31 15:58:21;;;;;;;5.55;4.05;;;;;;;8.57;100.00;99554.06;5072877;28;20412;-77
2021/12/31 16:00:47;;;;;;;6.80;3.90;;;;;;;8.52;100.00;99561.00;5096696;28;20051;-78
2021/12/31 16:03:14;;;;;;;5.40;3.20;;;;;;;8.39;100.00;99548.72;5087775;28;20056;-77
2021/12/31 16:05:43;;;;;;;6.93;3.42;;;;;;;8.38;100.00;99557.84;5088170;28;20048;-77
2021/12/31 16:08:10;;;;;;;5.10;2.85;;;;;;;8.24;100.00;99559.28;5076756;28;20045;-78
2021/12/31 16:10:37;;;;;;;5.75;3.78;;;;;;;8.15;100.00;99558.38;5076998;28;20660;-78
2021/12/31 16:13:04;;;;;;;4.90;3.03;;;;;;;8.22;100.00;99576.69;5076570;28;20048;-78
2021/12/31 16:15:33;;;;;;;5.10;3.10;;;;;;;8.10;100.00;99559.88;5078085;28;20044;-78
2021/12/31 16:18:00;;;;;;;5.88;3.75;;;;;;;8.02;100.00;99565.25;5090369;28;20134;-78
2021/12/31 16:20:27;;;;;;;6.22;2.95;;;;;;;8.04;100.00;99580.31;5088476;28;20044;-78
2021/12/31 16:22:54;;;;;;;5.38;3.20;;;;;;;7.95;100.00;99575.88;5076576;28;20053;-78
2021/12/31 16:25:21;;;;;;;4.95;2.88;;;;;;;7.93;100.00;99570.59;5076722;28;20055;-79
2021/12/31 16:27:50;;;;;;;5.75;3.47;;;;;;;7.98;100.00;99589.09;5076067;28;20056;-78
2021/12/31 16:30:18;;;;;;;3.97;3.47;;;;;;;7.98;100.00;99602.63;5083463;28;20044;-78
2021/12/31 16:32:48;;;;;;;6.38;3.28;;;;;;;7.98;100.00;99610.75;5089945;28;20051;-78
2021/12/31 16:35:15;;;;;;;4.53;3.50;;;;;;;7.80;100.00;99583.69;5094678;28;20048;-79
2021/12/31 16:37:43;;;;;;;3.95;2.88;;;;;;;7.91;100.00;99602.38;5095696;28;20048;-78
2021/12/31 16:40:12;;;;;;;5.65;3.30;;;;;;;7.71;100.00;99599.00;5076582;28;20048;-79
2021/12/31 16:42:39;;;;;;;5.97;3.40;;;;;;;7.63;100.00;99604.34;5084417;28;20503;-79
2021/12/31 16:45:07;;;;;;;3.75;2.72;;;;;;;7.56;100.00;99598.72;5084182;28;20036;-78
2021/12/31 16:47:35;;;;;;;7.28;3.30;;;;;;;7.48;100.00;99593.19;5076279;28;20072;-78
2021/12/31 16:50:04;;;;;;;6.00;4.00;;;;;;;7.52;100.00;99612.69;5089607;28;20044;-78
2021/12/31 16:52:31;;;;;;;8.27;5.38;;;;;;;7.59;100.00;99611.94;5082080;28;20052;-78
2021/12/31 16:54:59;;;;;;;10.20;5.65;;;;;;;7.65;100.00;99631.25;5076949;28;20053;-78
2021/12/31 16:57:27;;;;;;;12.77;8.20;;;;;;;7.59;100.00;99635.44;5076143;28;20053;-78
2021/12/31 16:59:54;;;;;;;23.58;14.30;;;;;;;7.63;100.00;99642.22;5091862;28;20055;-78
2021/12/31 17:02:20;;;;;;;22.17;13.23;;;;;;;7.64;100.00;99648.50;5095938;28;20048;-78
2021/12/31 17:04:47;;;;;;;22.10;13.52;;;;;;;7.46;100.00;99657.44;5083596;28;20056;-78
2021/12/31 17:07:16;;;;;;;21.33;12.30;;;;;;;7.38;100.00;99641.13;5092674;28;20071;-78
2021/12/31 17:09:43;;;;;;;16.75;10.60;;;;;;;7.28;100.00;99654.72;5092929;28;20044;-78
2021/12/31 17:12:10;;;;;;;15.02;10.70;;;;;;;7.15;100.00;99646.97;5074544;28;20044;-78
2021/12/31 17:14:37;;;;;;;12.85;8.43;;;;;;;7.21;100.00;99649.06;5087876;28;20395;-78
2021/12/31 17:17:05;;;;;;;14.10;8.45;;;;;;;7.15;100.00;99673.16;5079379;28;20053;-78
2021/12/31 17:19:32;;;;;;;14.40;8.30;;;;;;;6.98;100.00;99662.13;5086531;28;20052;-78
2021/12/31 17:21:59;;;;;;;12.15;7.35;;;;;;;6.90;100.00;99664.75;5091711;28;20067;-78
2021/12/31 17:24:30;;;;;;;13.07;7.13;;;;;;;6.90;100.00;99680.94;5095301;28;20396;-78
2021/12/31 17:26:57;;;;;;;10.07;6.65;;;;;;;6.79;100.00;99671.19;5091609;28;20109;-78
2021/12/31 17:29:23;;;;;;;13.85;7.88;;;;;;;6.77;100.00;99685.84;5094491;28;20040;-78
2021/12/31 17:31:51;;;;;;;14.98;8.30;;;;;;;6.82;100.00;99687.09;5088722;28;20046;-78
2021/12/31 17:34:18;;;;;;;12.18;8.35;;;;;;;6.61;100.00;99673.81;5083792;28;20051;-78
2021/12/31 17:36:45;;;;;;;14.23;8.57;;;;;;;6.77;100.00;99716.41;5074315;28;20053;-78
2021/12/31 17:39:12;;;;;;;11.23;7.53;;;;;;;6.63;100.00;99709.63;5098705;28;20067;-78
2021/12/31 17:41:40;;;;;;;17.33;8.73;;;;;;;6.55;100.00;99715.75;5093491;28;20052;-78
2021/12/31 17:44:07;;;;;;;25.05;12.48;;;;;;;6.60;100.00;99715.31;5090403;28;20075;-78
2021/12/31 17:46:35;;;;;;;20.83;11.23;;;;;;;6.49;100.00;99712.81;5081023;28;20051;-78
2021/12/31 17:49:02;;;;;;;17.85;11.30;;;;;;;6.50;100.00;99744.19;5083428;28;20146;-78
2021/12/31 17:51:28;;;;;;;17.98;10.57;;;;;;;6.26;100.00;99736.56;5073982;28;20047;-78
2021/12/31 17:53:55;;;;;;;20.77;11.88;;;;;;;6.35;100.00;99731.16;5076330;28;20408;-78
2021/12/31 17:56:23;;;;;;;17.63;11.45;;;;;;;6.27;100.00;99752.59;5093297;28;20047;-78
2021/12/31 17:58:51;;;;;;;17.27;10.35;;;;;;;6.05;100.00;99737.53;5094129;28;20058;-78
2021/12/31 18:01:18;;;;;;;15.23;10.00;;;;;;;5.95;100.00;99728.59;5087729;28;20052;-78
2021/12/31 18:03:45;;;;;;;22.75;10.15;;;;;;;6.05;100.00;99752.91;5073722;28;20056;-78
2021/12/31 18:06:12;;;;;;;23.75;13.75;;;;;;;6.06;100.00;99739.25;5080460;28;20076;-78
2021/12/31 18:08:39;;;;;;;19.67;12.02;;;;;;;5.95;100.00;99733.97;5073763;28;20056;-78
2021/12/31 18:11:08;;;;;;;19.83;12.90;;;;;;;5.92;100.00;99715.38;5079476;28;20052;-78
2021/12/31 18:13:35;;;;;;;24.42;14.38;;;;;;;6.03;100.00;99729.59;5093534;28;20052;-78
2021/12/31 18:16:05;;;;;;;19.63;11.48;;;;;;;5.98;100.00;99729.16;5092335;28;20044;-78
2021/12/31 18:18:32;;;;;;;20.83;12.52;;;;;;;5.81;100.00;99738.78;5076039;28;20080;-78
2021/12/31 18:21:00;;;;;;;22.63;10.98;;;;;;;5.73;100.00;99752.09;5084861;28;20653;-78
2021/12/31 18:23:27;;;;;;;18.73;11.18;;;;;;;5.80;100.00;99764.06;5081505;28;20047;-78
2021/12/31 18:25:54;;;;;;;12.43;8.52;;;;;;;5.71;100.00;99774.84;5072754;28;20049;-79
2021/12/31 18:28:23;;;;;;;13.82;7.95;;;;;;;5.72;100.00;99774.72;5079649;28;20044;-78
2021/12/31 18:30:50;;;;;;;21.90;11.15;;;;;;;5.69;100.00;99774.97;5092279;28;20051;-78
2021/12/31 18:33:18;;;;;;;22.00;11.98;;;;;;;5.64;100.00;99778.06;5093229;28;20040;-78
2021/12/31 18:35:45;;;;;;;20.85;11.85;;;;;;;5.52;100.00;99776.47;5091341;28;20119;-78
2021/12/31 18:38:12;;;;;;;18.92;10.50;;;;;;;5.68;100.00;99782.22;5085635;28;20057;-77
2021/12/31 18:40:39;;;;;;;21.33;10.38;;;;;;;5.48;100.00;99775.91;5082299;28;20044;-78
2021/12/31 18:43:06;;;;;;;22.38;11.45;;;;;;;5.55;100.00;99800.47;5082537;28;20048;-78
2021/12/31 18:45:36;;;;;;;19.85;10.02;;;;;;;5.59;100.00;99801.91;5081321;28;20571;-78
2021/12/31 18:48:03;;;;;;;22.45;9.85;;;;;;;5.53;100.00;99807.03;5092584;28;20098;-78
2021/12/31 18:50:33;;;;;;;18.50;9.15;;;;;;;5.46;100.00;99807.53;5078896;28;20055;-78
2021/12/31 18:53:00;;;;;;;12.98;8.10;;;;;;;5.50;100.00;99798.19;5079615;28;20089;-78
2021/12/31 18:55:28;;;;;;;11.63;7.93;;;;;;;5.30;100.00;99799.97;5083344;28;20500;-78
2021/12/31 18:57:55;;;;;;;11.00;7.15;;;;;;;5.43;100.00;99806.97;5092035;28;20079;-78
2021/12/31 19:00:22;;;;;;;11.88;7.63;;;;;;;5.60;100.00;99819.81;5091167;28;20051;-78
2021/12/31 19:02:49;;;;;;;16.80;8.52;;;;;;;5.60;100.00;99816.25;5089589;28;20492;-78
2021/12/31 19:05:17;;;;;;;11.63;7.10;;;;;;;5.59;100.00;99814.56;5093468;28;20052;-78
2021/12/31 19:07:45;;;;;;;12.65;7.07;;;;;;;5.51;100.00;99831.44;5079411;28;20126;-78
2021/12/31 19:10:12;;;;;;;12.07;7.10;;;;;;;5.44;100.00;99831.09;5083419;28;20051;-78
2021/12/31 19:12:39;;;;;;;25.17;14.68;;;;;;;5.39;100.00;99837.88;5075828;28;20066;-78
2021/12/31 19:15:07;;;;;;;13.27;8.23;;;;;;;5.26;100.00;99838.13;5080509;28;20067;-78
2021/12/31 19:17:34;;;;;;;16.42;9.60;;;;;;;5.32;100.00;99846.53;5088612;28;20052;-78
2021/12/31 19:20:02;;;;;;;18.60;10.98;;;;;;;5.32;100.00;99845.69;5080079;28;20133;-83